Time;durP1;ratioP1;P1;durP2;ratioP2;P2;SDS_P1;SDS_P2;PMS_P1;PMS_P2;Temp;Humidity;BMP_temperature;BMP_pressure;BME280_temperature;BME280_humidity;BME280_pressure;Samples;Min_cycle;Max_cycle;Signal;HPM_P1;HPM_P2
2022/06/04 00:00:44;;;;;;;13.93;8.80;;;11.40;99.90;;;;;;4850808;29;20510;-86
2022/06/04 00:03:11;;;;;;;14.70;8.63;;;11.40;99.90;;;;;;4815916;29;20073;-86
2022/06/04 00:05:40;;;;;;;13.15;8.70;;;11.30;99.90;;;;;;4809568;29;20414;-85
2022/06/04 00:08:08;;;;;;;16.30;9.60;;;11.40;99.90;;;;;;4824337;29;20057;-85
2022/06/04 00:16:20;;;;;;;14.77;9.13;;;11.30;99.90;;;;;;4854901;29;20215;-85
2022/06/04 00:18:47;;;;;;;17.85;9.48;;;11.20;99.90;;;;;;4854189;29;20047;-85
2022/06/04 00:21:13;;;;;;;15.70;9.18;;;11.20;99.90;;;;;;4808926;29;20050;-85
2022/06/04 00:23:39;;;;;;;14.40;9.52;;;11.20;99.90;;;;;;4842579;29;20518;-85
2022/06/04 00:26:08;;;;;;;15.02;9.63;;;11.20;99.90;;;;;;4839178;29;20049;-85
2022/06/04 00:28:35;;;;;;;16.10;9.27;;;11.20;99.90;;;;;;4808691;29;20450;-86
2022/06/04 00:31:01;;;;;;;17.45;9.38;;;11.20;99.90;;;;;;4823923;29;20133;-85
2022/06/04 00:33:27;;;;;;;16.67;9.80;;;11.10;99.90;;;;;;4823771;29;20081;-85
2022/06/04 00:35:55;;;;;;;16.27;9.55;;;11.10;99.90;;;;;;4823889;29;20078;-86
2022/06/04 00:38:23;;;;;;;17.75;9.98;;;11.10;99.90;;;;;;4808426;29;20046;-86
2022/06/04 00:41:32;;;;;;;15.23;9.80;;;11.00;99.90;;;;;;4823875;29;20038;-86
2022/06/04 00:44:10;;;;;;;15.98;9.38;;;11.10;99.90;;;;;;4826177;29;20039;-86
2022/06/04 00:46:42;;;;;;;19.88;10.68;;;11.00;99.90;;;;;;4824198;29;20499;-86
2022/06/04 00:49:08;;;;;;;17.58;11.40;;;11.00;99.90;;;;;;4810671;29;20050;-86
2022/06/04 00:51:34;;;;;;;20.52;11.48;;;11.00;99.90;;;;;;4823768;29;20533;-86
2022/06/04 00:54:01;;;;;;;18.13;11.57;;;11.00;99.90;;;;;;4808330;29;20553;-86
2022/06/04 00:56:41;;;;;;;21.10;12.55;;;11.00;99.90;;;;;;4823250;29;20050;-86
2022/06/04 00:59:26;;;;;;;19.85;11.70;;;10.90;99.90;;;;;;4838864;29;20046;-86
2022/06/04 01:02:02;;;;;;;21.25;12.02;;;10.90;99.90;;;;;;4811976;29;20500;-86
2022/06/04 01:04:48;;;;;;;20.80;12.32;;;10.90;99.90;;;;;;4819627;29;20042;-86
2022/06/04 01:07:20;;;;;;;17.55;10.57;;;10.90;99.90;;;;;;4823639;29;20049;-86
2022/06/04 01:10:15;;;;;;;16.50;10.88;;;10.90;99.90;;;;;;4822775;29;20046;-86
2022/06/04 01:13:07;;;;;;;18.90;11.10;;;10.90;99.90;;;;;;4827186;29;20046;-86
2022/06/04 01:15:50;;;;;;;16.67;10.70;;;10.80;99.90;;;;;;4823759;29;20042;-86
2022/06/04 01:18:31;;;;;;;19.25;11.63;;;10.90;99.90;;;;;;4811943;29;20054;-86
2022/06/04 01:21:20;;;;;;;20.42;12.38;;;10.90;99.90;;;;;;4823547;29;20495;-86
2022/06/04 01:23:55;;;;;;;20.00;12.30;;;10.80;99.90;;;;;;4812434;29;20096;-86
2022/06/04 01:26:57;;;;;;;18.77;11.85;;;10.80;99.90;;;;;;4823698;29;20486;-86
2022/06/04 01:29:57;;;;;;;18.33;11.43;;;10.80;99.90;;;;;;4835393;29;20125;-86
2022/06/04 01:32:49;;;;;;;18.20;12.10;;;10.80;99.90;;;;;;4811206;29;20115;-86
2022/06/04 01:35:36;;;;;;;20.67;11.60;;;10.80;99.90;;;;;;4823169;29;20046;-86
2022/06/04 01:38:18;;;;;;;24.55;13.48;;;10.80;99.90;;;;;;4822953;29;20095;-86
2022/06/04 01:41:06;;;;;;;23.35;12.68;;;10.80;99.90;;;;;;4841687;29;20077;-86
2022/06/04 01:43:57;;;;;;;18.80;11.90;;;10.80;99.90;;;;;;4805336;29;20047;-86
2022/06/04 01:46:33;;;;;;;17.65;11.82;;;10.80;99.90;;;;;;4804728;29;20053;-86
2022/06/04 01:49:13;;;;;;;19.90;12.02;;;10.70;99.90;;;;;;4851763;29;20077;-86
2022/06/04 01:51:39;;;;;;;17.33;12.68;;;10.70;99.90;;;;;;4832170;29;20074;-86
2022/06/04 01:54:29;;;;;;;18.50;12.98;;;10.70;99.90;;;;;;4807210;29;20046;-86
2022/06/04 01:56:59;;;;;;;21.90;13.23;;;10.70;99.90;;;;;;4822839;29;20059;-86
2022/06/04 01:59:46;;;;;;;23.30;12.80;;;10.70;99.90;;;;;;4846677;29;20042;-86
2022/06/04 02:02:24;;;;;;;24.92;13.10;;;10.70;99.90;;;;;;4833829;29;20043;-86
2022/06/04 02:04:56;;;;;;;25.77;14.52;;;10.70;99.90;;;;;;4807346;29;20502;-86
2022/06/04 02:07:32;;;;;;;25.75;13.98;;;10.70;99.90;;;;;;4810144;29;20124;-86
2022/06/04 02:10:04;;;;;;;19.38;12.25;;;10.50;99.90;;;;;;4838317;29;20077;-86
2022/06/04 02:12:33;;;;;;;24.23;14.23;;;10.50;99.90;;;;;;4822591;29;20181;-86
2022/06/04 02:15:03;;;;;;;20.05;13.98;;;10.50;99.90;;;;;;4834565;29;20058;-86
2022/06/04 02:17:31;;;;;;;25.98;14.07;;;10.40;99.90;;;;;;4807952;29;20395;-86
2022/06/04 02:19:57;;;;;;;20.73;13.40;;;10.50;99.90;;;;;;4838213;29;20458;-86
2022/06/04 02:22:22;;;;;;;23.20;12.70;;;10.50;99.90;;;;;;4811415;29;20078;-86
2022/06/04 02:24:48;;;;;;;25.60;14.65;;;10.40;99.90;;;;;;4796110;29;20046;-86
2022/06/04 02:27:14;;;;;;;24.08;15.27;;;10.40;99.90;;;;;;4826150;29;20077;-86
2022/06/04 02:29:40;;;;;;;23.35;14.10;;;10.30;99.90;;;;;;4825930;29;20053;-86
2022/06/04 02:32:26;;;;;;;21.25;14.52;;;10.30;99.90;;;;;;4796483;29;20046;-86
2022/06/04 02:35:02;;;;;;;21.50;13.50;;;10.30;99.90;;;;;;4837771;29;20468;-86
2022/06/04 02:37:51;;;;;;;21.30;13.02;;;10.30;99.90;;;;;;4811337;29;20031;-86
2022/06/04 02:40:31;;;;;;;24.73;15.38;;;10.30;99.90;;;;;;4807407;29;20545;-86
2022/06/04 02:43:19;;;;;;;21.73;13.68;;;10.30;99.90;;;;;;4822693;29;20087;-86
2022/06/04 02:46:16;;;;;;;22.55;12.98;;;10.30;99.90;;;;;;4838489;29;20507;-86
2022/06/04 02:48:51;;;;;;;20.10;12.57;;;10.30;99.90;;;;;;4811555;29;20141;-86
2022/06/04 02:51:23;;;;;;;22.88;12.60;;;10.30;99.90;;;;;;4810585;29;20046;-86
2022/06/04 02:53:49;;;;;;;23.40;13.18;;;10.30;99.90;;;;;;4841146;29;20046;-86
2022/06/04 02:56:25;;;;;;;22.20;13.35;;;10.30;99.90;;;;;;4807222;29;20066;-86
2022/06/04 02:58:57;;;;;;;21.63;12.85;;;10.30;99.90;;;;;;4807522;29;20051;-86
2022/06/04 03:01:24;;;;;;;20.63;12.93;;;10.30;99.90;;;;;;4850471;29;20038;-86
2022/06/04 03:03:50;;;;;;;21.58;12.32;;;10.20;99.90;;;;;;4794931;29;20046;-86
2022/06/04 03:06:26;;;;;;;24.55;12.65;;;10.30;99.90;;;;;;4840986;29;20053;-86
2022/06/04 03:08:53;;;;;;;20.15;12.43;;;10.30;99.90;;;;;;4840126;29;20046;-86
2022/06/04 03:11:19;;;;;;;22.92;13.40;;;10.20;99.90;;;;;;4790788;29;20384;-86
2022/06/04 03:13:45;;;;;;;23.70;12.23;;;10.30;99.90;;;;;;4848449;29;20533;-86
2022/06/04 03:16:12;;;;;;;20.48;12.70;;;10.30;99.90;;;;;;4825098;29;20042;-86
2022/06/04 03:18:38;;;;;;;20.80;12.05;;;10.30;99.90;;;;;;4808897;29;20039;-86
2022/06/04 03:21:04;;;;;;;19.65;12.02;;;10.30;99.90;;;;;;4828069;29;20112;-86
2022/06/04 03:23:31;;;;;;;20.48;12.23;;;10.30;99.90;;;;;;4810532;29;20125;-86
2022/06/04 03:25:57;;;;;;;20.33;12.30;;;10.20;99.90;;;;;;4855370;29;20085;-86
2022/06/04 03:28:23;;;;;;;20.55;12.25;;;10.30;99.90;;;;;;4840814;29;20077;-86
2022/06/04 03:30:49;;;;;;;22.02;12.10;;;10.20;99.90;;;;;;4840446;29;20530;-86
2022/06/04 03:33:15;;;;;;;19.80;11.55;;;10.20;99.90;;;;;;4853938;29;20081;-86
2022/06/04 03:35:42;;;;;;;22.73;11.98;;;10.20;99.90;;;;;;4824349;29;20142;-86
2022/06/04 03:38:08;;;;;;;20.13;12.13;;;10.20;99.90;;;;;;4855433;29;20054;-86
2022/06/04 03:40:34;;;;;;;18.48;12.52;;;10.20;99.90;;;;;;4809894;29;20042;-86
2022/06/04 03:42:59;;;;;;;19.83;11.98;;;10.10;99.90;;;;;;4811760;29;20044;-86
2022/06/04 03:45:26;;;;;;;17.58;12.07;;;10.20;99.90;;;;;;4825584;29;20129;-86
2022/06/04 03:47:54;;;;;;;21.20;12.30;;;10.20;99.90;;;;;;4810932;29;20053;-86
2022/06/04 03:50:20;;;;;;;18.75;11.82;;;10.20;99.90;;;;;;4840062;29;20046;-86
2022/06/04 03:52:47;;;;;;;22.02;12.85;;;10.20;99.90;;;;;;4839850;29;20061;-86
2022/06/04 03:55:15;;;;;;;20.45;13.10;;;10.20;99.90;;;;;;4809715;29;20138;-86
2022/06/04 03:57:48;;;;;;;20.10;11.88;;;10.20;99.90;;;;;;4824555;29;20062;-86
2022/06/04 04:00:29;;;;;;;21.33;12.77;;;10.30;99.90;;;;;;4838879;29;20128;-85
2022/06/04 04:03:01;;;;;;;17.50;12.02;;;10.30;99.90;;;;;;4834170;29;20073;-85
2022/06/04 04:05:32;;;;;;;20.85;12.73;;;10.30;99.90;;;;;;4809293;29;20042;-85
2022/06/04 04:07:59;;;;;;;21.20;13.13;;;10.30;99.90;;;;;;4809199;29;20042;-86
2022/06/04 04:10:27;;;;;;;21.30;13.07;;;10.40;99.90;;;;;;4806760;29;20499;-86
2022/06/04 04:12:53;;;;;;;19.83;13.05;;;10.40;99.90;;;;;;4822184;29;20038;-86
2022/06/04 04:15:20;;;;;;;21.60;14.23;;;10.40;99.90;;;;;;4839707;29;20046;-86
2022/06/04 04:17:47;;;;;;;20.48;13.27;;;10.40;99.90;;;;;;4838547;29;20042;-86
2022/06/04 04:20:31;;;;;;;22.38;13.10;;;10.40;99.90;;;;;;4794821;29;20042;-86
2022/06/04 04:22:58;;;;;;;23.83;13.40;;;10.40;99.90;;;;;;4843552;29;20125;-86
2022/06/04 04:25:26;;;;;;;21.02;13.30;;;10.50;99.90;;;;;;4839363;29;20051;-86
2022/06/04 04:27:52;;;;;;;19.10;12.23;;;10.50;99.90;;;;;;4824224;29;20050;-86
2022/06/04 04:30:22;;;;;;;17.48;12.25;;;10.60;99.90;;;;;;4824266;29;20046;-86
2022/06/04 04:32:48;;;;;;;19.10;11.77;;;10.60;99.90;;;;;;4838877;29;20130;-86
2022/06/04 04:35:20;;;;;;;18.92;10.80;;;10.60;99.90;;;;;;4829041;29;20051;-86
2022/06/04 04:37:46;;;;;;;18.85;11.45;;;10.70;99.90;;;;;;4818478;29;20047;-86
2022/06/04 04:40:14;;;;;;;16.80;10.25;;;10.70;99.90;;;;;;4814379;29;20049;-86
2022/06/04 04:42:40;;;;;;;15.95;11.65;;;10.70;99.90;;;;;;4838672;29;20038;-86
2022/06/04 04:45:07;;;;;;;17.33;10.05;;;10.70;99.90;;;;;;4823901;29;20058;-86
2022/06/04 04:47:40;;;;;;;15.50;10.27;;;10.80;99.90;;;;;;4810441;29;20050;-86
2022/06/04 04:50:19;;;;;;;16.13;9.98;;;10.80;99.90;;;;;;4824119;29;20411;-86
2022/06/04 04:52:46;;;;;;;15.55;9.50;;;10.90;99.90;;;;;;4808407;29;20178;-86
2022/06/04 04:55:12;;;;;;;18.38;10.23;;;11.00;99.90;;;;;;4853874;29;20053;-86
2022/06/04 04:57:38;;;;;;;16.05;10.23;;;11.20;99.90;;;;;;4820281;29;20055;-86
2022/06/04 05:00:06;;;;;;;16.13;9.88;;;11.40;99.90;;;;;;4837930;29;20050;-86
2022/06/04 05:02:32;;;;;;;13.88;8.88;;;11.60;99.90;;;;;;4808606;29;20137;-86
2022/06/04 05:04:58;;;;;;;15.13;8.93;;;11.90;99.90;;;;;;4824280;29;20474;-86
2022/06/04 05:07:23;;;;;;;14.55;8.65;;;12.10;99.90;;;;;;4838678;29;20050;-85
2022/06/04 05:09:49;;;;;;;15.20;8.15;;;12.20;99.90;;;;;;4853636;29;20102;-85
2022/06/04 05:12:15;;;;;;;13.10;8.07;;;12.40;99.90;;;;;;4793338;29;20475;-86
2022/06/04 05:14:40;;;;;;;14.45;8.75;;;12.80;99.90;;;;;;4808264;29;20100;-86
2022/06/04 05:17:06;;;;;;;11.18;6.68;;;13.00;99.90;;;;;;4823367;29;20080;-86
2022/06/04 05:19:32;;;;;;;14.60;7.93;;;13.80;99.90;;;;;;4799830;29;20035;-86
2022/06/04 05:21:58;;;;;;;10.88;6.70;;;14.10;99.90;;;;;;4800258;29;20042;-86
2022/06/04 05:24:33;;;;;;;12.52;7.40;;;14.10;99.90;;;;;;4824834;29;20045;-86
2022/06/04 05:27:00;;;;;;;11.23;6.63;;;14.80;99.90;;;;;;4798350;29;20089;-85
2022/06/04 05:29:28;;;;;;;11.20;5.82;;;14.60;99.90;;;;;;4823850;29;20053;-86
2022/06/04 05:31:54;;;;;;;10.88;6.40;;;15.00;99.90;;;;;;4817438;29;20050;-86
2022/06/04 05:34:20;;;;;;;10.43;6.00;;;15.00;99.90;;;;;;4807285;29;20431;-86
2022/06/04 05:36:47;;;;;;;10.93;6.38;;;15.30;99.90;;;;;;4807518;29;20050;-86
2022/06/04 05:39:14;;;;;;;9.13;5.47;;;15.40;99.90;;;;;;4807567;29;20034;-86
2022/06/04 05:41:40;;;;;;;11.40;6.00;;;15.50;99.90;;;;;;4823000;29;20038;-86
2022/06/04 05:44:07;;;;;;;9.70;5.72;;;15.80;99.90;;;;;;4822526;29;20041;-86
2022/06/04 05:46:34;;;;;;;9.27;5.88;;;15.90;99.90;;;;;;4823022;29;20038;-86
2022/06/04 05:49:00;;;;;;;11.25;5.80;;;15.70;99.90;;;;;;4805475;29;20521;-86
2022/06/04 05:51:28;;;;;;;8.88;5.82;;;16.00;99.90;;;;;;4807258;29;20046;-86
2022/06/04 05:53:54;;;;;;;10.23;6.10;;;16.10;99.90;;;;;;4837604;29;20042;-86
2022/06/04 05:56:28;;;;;;;9.13;4.90;;;15.80;99.90;;;;;;4795979;29;20142;-86
2022/06/04 05:59:00;;;;;;;11.68;6.38;;;16.30;99.90;;;;;;4815775;29;20047;-86
2022/06/04 06:01:27;;;;;;;;;;;16.60;99.90;;;;;;4839664;29;20050;-86
2022/06/04 06:03:54;;;;;;;10.35;6.47;;;16.60;99.90;;;;;;4821984;29;19920;-86
2022/06/04 06:06:23;;;;;;;9.70;5.97;;;16.60;99.90;;;;;;4807435;29;20061;-86
2022/06/04 06:08:49;;;;;;;9.93;5.55;;;16.80;99.90;;;;;;4822406;29;20133;-86
2022/06/04 06:11:16;;;;;;;8.73;5.10;;;17.00;99.90;;;;;;4837638;29;20506;-86
2022/06/04 06:13:43;;;;;;;11.23;5.50;;;17.10;99.90;;;;;;4822646;29;20058;-87
2022/06/04 06:16:13;;;;;;;12.02;6.18;;;17.00;99.90;;;;;;4822619;29;20053;-87
2022/06/04 06:18:39;;;;;;;13.10;5.85;;;16.70;99.90;;;;;;4851996;29;20478;-87
2022/06/04 06:21:07;;;;;;;10.05;5.60;;;16.50;99.90;;;;;;4805164;29;20066;-87
2022/06/04 06:23:34;;;;;;;9.00;5.30;;;16.40;99.90;;;;;;4807507;29;20078;-87
2022/06/04 06:26:13;;;;;;;10.23;6.00;;;16.40;99.90;;;;;;4807597;29;20047;-87
2022/06/04 06:28:40;;;;;;;9.05;5.25;;;16.70;99.90;;;;;;4845009;29;20050;-87
2022/06/04 06:31:08;;;;;;;8.85;5.40;;;16.60;99.90;;;;;;4793798;29;20092;-87
2022/06/04 06:33:34;;;;;;;9.00;5.18;;;16.70;99.90;;;;;;4813761;29;20050;-87
2022/06/04 06:36:05;;;;;;;8.25;5.30;;;17.20;99.90;;;;;;4806702;29;20046;-87
2022/06/04 06:38:31;;;;;;;9.17;5.47;;;17.40;99.90;;;;;;4807214;29;20440;-87
2022/06/04 06:40:58;;;;;;;9.18;4.97;;;17.40;99.90;;;;;;4837181;29;20045;-88
2022/06/04 06:43:59;;;;;;;9.48;5.43;;;17.60;99.90;;;;;;4821150;29;20043;-87
2022/06/04 06:46:23;;;;;;;8.55;4.82;;;17.80;99.90;;;;;;4819153;29;20103;-87
2022/06/04 06:48:51;;;;;;;7.93;4.93;;;17.70;99.90;;;;;;4803412;29;20050;-86
2022/06/04 06:51:22;;;;;;;10.32;5.75;;;17.60;99.90;;;;;;4849284;29;20510;-85
2022/06/04 06:53:47;;;;;;;10.02;5.10;;;17.30;99.90;;;;;;4843056;29;20042;-86
2022/06/04 06:56:16;;;;;;;9.88;4.90;;;17.30;99.90;;;;;;4821614;29;20522;-86
2022/06/04 06:58:42;;;;;;;10.30;5.65;;;17.60;99.90;;;;;;4836926;29;20415;-86
2022/06/04 07:01:09;;;;;;;7.60;4.70;;;17.70;99.90;;;;;;4792003;29;20047;-86
2022/06/04 07:03:36;;;;;;;9.13;5.15;;;18.20;99.90;;;;;;4803080;29;20082;-86
2022/06/04 07:06:03;;;;;;;8.57;4.95;;;18.60;99.00;;;;;;4837213;29;20503;-87
2022/06/04 07:08:29;;;;;;;9.48;5.30;;;18.70;99.10;;;;;;4809243;29;20046;-86
2022/06/04 07:10:55;;;;;;;9.70;5.80;;;18.50;99.80;;;;;;4796977;29;20503;-86
2022/06/04 07:13:21;;;;;;;8.60;4.68;;;18.20;97.90;;;;;;4829792;29;20123;-86
2022/06/04 07:15:46;;;;;;;8.00;4.85;;;18.10;99.90;;;;;;4823360;29;20107;-86
2022/06/04 07:18:13;;;;;;;11.00;5.35;;;18.80;98.50;;;;;;4822216;29;20103;-85
2022/06/04 07:20:41;;;;;;;7.82;5.00;;;18.20;99.10;;;;;;4825157;29;20458;-85
2022/06/04 07:23:07;;;;;;;8.20;4.57;;;17.60;99.90;;;;;;4824473;29;20043;-86
2022/06/04 07:25:33;;;;;;;9.68;4.95;;;18.10;99.90;;;;;;4822330;29;20046;-85
2022/06/04 07:27:59;;;;;;;8.07;5.13;;;18.50;99.90;;;;;;4828747;29;20046;-86
2022/06/04 07:30:24;;;;;;;10.40;5.53;;;18.60;99.50;;;;;;4806824;29;20054;-85
2022/06/04 07:32:51;;;;;;;10.02;5.15;;;17.70;99.70;;;;;;4814487;29;20063;-85
2022/06/04 07:35:17;;;;;;;9.88;5.55;;;18.00;99.90;;;;;;4817208;29;20551;-85
2022/06/04 07:37:43;;;;;;;10.93;5.22;;;18.30;99.90;;;;;;4808182;29;20038;-86
2022/06/04 07:40:10;;;;;;;9.75;5.70;;;18.60;99.90;;;;;;4838551;29;20050;-85
2022/06/04 07:42:36;;;;;;;8.57;4.90;;;18.60;98.30;;;;;;4823039;29;20041;-86
2022/06/04 07:45:03;;;;;;;8.30;4.88;;;18.70;99.00;;;;;;4823874;29;20402;-86
2022/06/04 07:47:29;;;;;;;8.35;5.43;;;19.30;98.00;;;;;;4822177;29;20034;-87
2022/06/04 07:49:56;;;;;;;8.80;4.82;;;19.40;96.20;;;;;;4822662;29;20041;-87
2022/06/04 07:52:22;;;;;;;7.75;4.78;;;18.70;97.10;;;;;;4823296;29;20117;-86
2022/06/04 07:54:47;;;;;;;8.88;4.82;;;18.60;95.80;;;;;;4803250;29;20118;-86
2022/06/04 07:57:13;;;;;;;8.35;5.38;;;18.70;98.00;;;;;;4815079;29;20141;-87
2022/06/04 07:59:39;;;;;;;8.23;5.50;;;18.70;98.10;;;;;;4823358;29;20042;-87
2022/06/04 08:02:05;;;;;;;9.60;5.22;;;18.90;98.00;;;;;;4821607;29;20300;-87
2022/06/04 08:04:31;;;;;;;8.48;4.82;;;18.70;98.40;;;;;;4792026;29;20510;-87
2022/06/04 08:06:57;;;;;;;8.35;5.18;;;19.10;99.20;;;;;;4807397;29;20133;-87
2022/06/04 08:09:24;;;;;;;7.90;5.22;;;19.60;97.00;;;;;;4804727;29;20038;-88
2022/06/04 08:11:50;;;;;;;7.13;4.40;;;20.10;95.20;;;;;;4839084;29;20058;-88
2022/06/04 08:14:21;;;;;;;8.10;5.13;;;20.50;95.30;;;;;;4823648;29;20050;-88
2022/06/04 08:16:53;;;;;;;8.00;4.78;;;20.90;95.00;;;;;;4808597;29;20050;-87
2022/06/04 08:19:19;;;;;;;;;;;20.70;90.50;;;;;;4801086;29;20035;-88
2022/06/04 08:21:45;;;;;;;7.97;4.85;;;20.10;93.50;;;;;;4808605;29;19920;-88
2022/06/04 08:24:13;;;;;;;7.47;4.68;;;20.10;94.00;;;;;;4823358;29;20042;-87
2022/06/04 08:26:42;;;;;;;8.15;4.85;;;20.00;92.50;;;;;;4825503;29;20046;-88
2022/06/04 08:29:08;;;;;;;8.45;5.07;;;19.80;91.30;;;;;;4838591;29;20080;-88
2022/06/04 08:31:34;;;;;;;9.05;5.20;;;19.70;93.10;;;;;;4808628;29;20523;-88
2022/06/04 08:34:00;;;;;;;7.45;4.45;;;19.70;94.50;;;;;;4853386;29;20046;-87
2022/06/04 08:36:26;;;;;;;6.63;4.28;;;19.70;94.40;;;;;;4808579;29;20070;-87
2022/06/04 08:38:52;;;;;;;9.50;4.90;;;19.80;94.40;;;;;;4808667;29;20068;-87
2022/06/04 08:41:42;;;;;;;9.02;4.47;;;19.70;91.80;;;;;;4808492;29;20049;-86
2022/06/04 08:44:19;;;;;;;7.93;4.68;;;20.00;92.70;;;;;;4808058;29;20046;-88
2022/06/04 08:46:52;;;;;;;7.13;4.13;;;20.10;91.20;;;;;;4838909;29;20510;-87
2022/06/04 08:49:42;;;;;;;10.07;5.30;;;20.40;93.00;;;;;;4813745;29;20045;-86
2022/06/04 08:52:16;;;;;;;9.35;4.90;;;20.60;90.20;;;;;;4823942;29;20049;-85
2022/06/04 08:57:50;;;;;;;8.05;4.50;;;20.70;88.10;;;;;;4830412;29;20066;-86
2022/06/04 09:00:16;;;;;;;6.72;4.25;;;20.80;84.50;;;;;;4823371;29;20046;-86
2022/06/04 09:03:07;;;;;;;7.22;4.28;;;20.50;84.50;;;;;;4837569;29;20079;-86
2022/06/04 09:05:54;;;;;;;6.93;4.28;;;20.10;82.50;;;;;;4846233;29;20046;-86
2022/06/04 09:08:38;;;;;;;7.88;4.38;;;19.80;82.10;;;;;;4835723;29;20435;-86
2022/06/04 09:11:21;;;;;;;7.63;4.57;;;19.80;88.30;;;;;;4795161;29;20038;-86
2022/06/04 09:14:13;;;;;;;7.40;4.50;;;20.00;91.60;;;;;;4823114;29;20103;-86
2022/06/04 09:16:46;;;;;;;8.80;4.97;;;20.10;90.50;;;;;;4823455;29;20039;-85
2022/06/04 09:19:18;;;;;;;7.43;4.90;;;20.30;85.80;;;;;;4816192;29;20495;-86
2022/06/04 09:21:45;;;;;;;;;;;20.10;88.10;;;;;;4808105;29;20138;-86
2022/06/04 09:24:10;;;;;;;7.65;4.60;;;19.60;90.40;;;;;;4852934;29;19933;-86
2022/06/04 09:26:51;;;;;;;8.25;4.95;;;19.50;92.00;;;;;;4838002;29;20042;-86
2022/06/04 09:29:42;;;;;;;8.90;5.40;;;19.80;92.10;;;;;;4806914;29;20046;-86
2022/06/04 09:32:21;;;;;;;8.98;5.05;;;19.80;91.60;;;;;;4832455;29;20518;-86
2022/06/04 09:34:53;;;;;;;7.53;5.18;;;20.00;93.20;;;;;;4810591;29;20054;-86
2022/06/04 09:37:19;;;;;;;;;;;20.30;90.80;;;;;;4792907;29;20498;-86
2022/06/04 09:39:47;;;;;;;9.82;5.13;;;20.50;88.50;;;;;;4822787;29;19937;-86
2022/06/04 09:42:15;;;;;;;8.73;4.90;;;20.40;90.50;;;;;;4835178;29;20495;-86
2022/06/04 09:44:56;;;;;;;9.05;5.20;;;20.40;91.70;;;;;;4807023;29;20227;-86
2022/06/04 09:47:39;;;;;;;8.88;4.80;;;20.90;92.70;;;;;;4853122;29;20046;-86
2022/06/04 09:50:39;;;;;;;8.07;5.43;;;21.40;91.70;;;;;;4841528;29;20080;-86
2022/06/04 09:53:05;;;;;;;7.60;5.10;;;21.50;83.70;;;;;;4837223;29;20046;-86
2022/06/04 09:55:33;;;;;;;7.60;5.18;;;21.60;87.60;;;;;;4822837;29;20102;-86
2022/06/04 09:58:03;;;;;;;10.50;5.72;;;21.80;80.00;;;;;;4821673;29;20054;-86
2022/06/04 10:00:39;;;;;;;8.43;5.32;;;21.20;82.60;;;;;;4807482;29;20126;-86
2022/06/04 10:03:15;;;;;;;8.95;5.68;;;21.40;87.40;;;;;;4820987;29;20046;-86
2022/06/04 10:06:00;;;;;;;8.63;5.22;;;21.40;86.10;;;;;;4807419;29;20057;-86
2022/06/04 10:08:29;;;;;;;7.85;5.10;;;21.60;82.70;;;;;;4806865;29;20078;-86
2022/06/04 10:11:03;;;;;;;7.05;5.10;;;21.70;81.10;;;;;;4822614;29;20110;-86
2022/06/04 10:13:46;;;;;;;7.95;4.95;;;21.60;82.50;;;;;;4807138;29;20038;-87
2022/06/04 10:16:20;;;;;;;6.97;4.60;;;22.10;83.40;;;;;;4821852;29;20050;-87
2022/06/04 10:18:57;;;;;;;7.40;4.20;;;22.10;78.30;;;;;;4821316;29;20058;-86
2022/06/04 10:21:29;;;;;;;8.05;4.90;;;22.20;78.20;;;;;;4827791;29;20042;-86
2022/06/04 10:23:57;;;;;;;8.55;4.85;;;22.40;74.70;;;;;;4836991;29;20158;-86
2022/06/04 10:26:32;;;;;;;7.93;5.30;;;22.10;74.50;;;;;;4822188;29;20046;-86
2022/06/04 10:29:55;;;;;;;8.88;5.05;;;21.70;75.60;;;;;;4837160;29;20074;-86
2022/06/04 10:33:17;;;;;;;8.02;4.72;;;21.90;79.90;;;;;;4796364;29;20058;-86
2022/06/04 10:36:21;;;;;;;7.53;5.18;;;22.00;79.50;;;;;;4769801;29;20183;-86
2022/06/04 10:39:11;;;;;;;9.77;5.43;;;21.90;73.60;;;;;;4769985;30;20051;-86
2022/06/04 10:41:53;;;;;;;8.38;5.30;;;21.60;76.60;;;;;;4805899;29;20046;-86
2022/06/04 10:44:21;;;;;;;10.20;5.95;;;21.40;77.40;;;;;;4808676;29;20073;-86
2022/06/04 10:46:52;;;;;;;8.55;5.53;;;21.50;79.10;;;;;;4856269;29;20103;-86
2022/06/04 10:49:49;;;;;;;9.57;5.57;;;21.20;78.40;;;;;;4824195;29;20051;-85
2022/06/04 10:52:47;;;;;;;7.70;4.80;;;21.00;82.60;;;;;;4840944;29;20852;-86
2022/06/04 10:55:42;;;;;;;7.93;5.22;;;20.90;79.90;;;;;;4825418;29;20414;-85
2022/06/04 10:58:16;;;;;;;7.72;4.75;;;20.70;76.90;;;;;;4842159;29;20111;-85
2022/06/04 11:00:56;;;;;;;8.40;4.93;;;20.80;78.10;;;;;;4855820;29;20175;-85
2022/06/04 11:03:43;;;;;;;8.32;5.30;;;21.20;84.20;;;;;;4855005;29;20104;-85
2022/06/04 11:06:17;;;;;;;9.70;5.75;;;21.50;80.00;;;;;;4840396;29;20050;-85
2022/06/04 11:08:51;;;;;;;7.15;4.88;;;21.50;82.40;;;;;;4817857;29;20499;-85
2022/06/04 11:11:53;;;;;;;9.93;5.35;;;21.80;83.60;;;;;;4825067;29;20045;-85
2022/06/04 11:14:38;;;;;;;7.63;5.10;;;21.80;78.60;;;;;;4821829;29;20082;-86
2022/06/04 11:17:23;;;;;;;8.40;5.15;;;21.90;79.40;;;;;;4809694;29;20046;-85
2022/06/04 11:20:03;;;;;;;6.97;4.80;;;22.00;75.40;;;;;;4836659;29;20388;-86
2022/06/04 11:22:38;;;;;;;6.63;4.25;;;22.10;79.90;;;;;;4837142;29;20117;-85
2022/06/04 11:25:27;;;;;;;7.25;3.80;;;21.80;70.20;;;;;;4847929;29;20045;-85
2022/06/04 11:28:01;;;;;;;6.53;3.78;;;21.60;70.30;;;;;;4827350;29;20073;-86
2022/06/04 11:30:46;;;;;;;7.22;4.20;;;21.70;75.60;;;;;;4840230;29;20513;-85
2022/06/04 11:33:49;;;;;;;7.35;4.00;;;21.70;72.20;;;;;;4843694;29;20053;-85
2022/06/04 11:36:30;;;;;;;7.00;3.50;;;21.90;75.50;;;;;;4809303;29;20041;-85
2022/06/04 11:39:21;;;;;;;8.13;3.90;;;22.10;72.30;;;;;;4824405;29;20089;-85
2022/06/04 11:42:09;;;;;;;6.55;3.58;;;22.20;72.90;;;;;;4837098;29;20042;-85
2022/06/04 11:45:02;;;;;;;6.10;3.08;;;22.30;79.50;;;;;;4839089;29;20045;-87
2022/06/04 11:48:02;;;;;;;6.97;3.30;;;22.40;68.30;;;;;;4855233;29;20495;-86
2022/06/04 11:50:50;;;;;;;6.07;2.92;;;22.20;68.10;;;;;;4802770;29;20047;-86
2022/06/04 11:53:27;;;;;;;6.55;3.08;;;22.30;64.80;;;;;;4830970;29;20075;-85
2022/06/04 11:56:21;;;;;;;6.40;3.10;;;22.10;66.20;;;;;;4859713;29;20042;-85
2022/06/04 11:59:04;;;;;;;7.35;3.40;;;22.40;68.10;;;;;;4838879;29;20042;-85
2022/06/04 12:01:40;;;;;;;5.68;3.10;;;22.40;68.70;;;;;;4826810;29;20174;-86
2022/06/04 12:04:34;;;;;;;6.28;2.80;;;22.50;69.90;;;;;;4811436;29;20283;-86
2022/06/04 12:07:05;;;;;;;5.75;2.80;;;22.60;66.00;;;;;;4815066;29;20395;-85
2022/06/04 12:09:35;;;;;;;5.95;2.83;;;22.70;64.70;;;;;;4826901;29;20046;-85
2022/06/04 12:12:14;;;;;;;8.25;2.88;;;22.70;63.70;;;;;;4811986;29;20050;-85
2022/06/04 12:14:46;;;;;;;6.03;2.90;;;22.60;64.50;;;;;;4811678;29;20193;-85
2022/06/04 12:17:22;;;;;;;8.02;3.00;;;22.40;63.90;;;;;;4842212;29;20046;-86
2022/06/04 12:25:40;;;;;;;6.45;3.08;;;22.00;66.00;;;;;;4826736;29;20133;-87
2022/06/04 12:28:28;;;;;;;7.10;3.08;;;22.10;72.50;;;;;;4857312;29;20049;-86
2022/06/04 12:30:55;;;;;;;6.95;3.42;;;22.10;73.50;;;;;;4811422;29;20038;-86
2022/06/04 12:33:47;;;;;;;6.05;3.25;;;22.10;73.90;;;;;;4826503;29;20505;-86
2022/06/04 12:36:26;;;;;;;7.22;3.47;;;21.90;76.20;;;;;;4810014;29;20046;-87
2022/06/04 12:39:37;;;;;;;6.40;3.13;;;21.90;74.60;;;;;;4811316;29;20042;-86
2022/06/04 12:42:20;;;;;;;5.28;3.00;;;21.80;73.80;;;;;;4809093;29;20049;-86
2022/06/04 12:44:58;;;;;;;5.85;2.72;;;21.50;71.60;;;;;;4811013;29;20056;-87
2022/06/04 12:47:36;;;;;;;6.00;3.10;;;21.80;75.30;;;;;;4848632;29;20057;-87
2022/06/04 12:50:19;;;;;;;6.20;3.40;;;22.10;75.80;;;;;;4814512;29;20436;-87
2022/06/04 12:52:57;;;;;;;7.53;3.50;;;22.10;77.40;;;;;;4811079;29;20050;-87
2022/06/04 12:55:28;;;;;;;6.72;3.10;;;22.20;78.60;;;;;;4827618;29;21081;-86
2022/06/04 12:58:14;;;;;;;6.80;3.05;;;22.30;74.00;;;;;;4844754;29;20098;-85
2022/06/04 13:00:41;;;;;;;6.43;3.30;;;22.20;74.80;;;;;;4825732;29;20125;-86
2022/06/04 13:03:07;;;;;;;5.40;3.00;;;22.20;71.50;;;;;;4792772;29;20041;-86
2022/06/04 13:05:36;;;;;;;5.70;3.17;;;22.30;71.20;;;;;;4823264;29;20490;-86
2022/06/04 13:08:20;;;;;;;5.80;2.90;;;22.40;68.90;;;;;;4844690;29;20446;-86
2022/06/04 13:10:58;;;;;;;8.30;3.47;;;22.40;67.10;;;;;;4851624;29;20102;-86
2022/06/04 13:13:45;;;;;;;6.50;3.15;;;22.30;73.30;;;;;;4807957;29;20042;-86
2022/06/04 13:16:24;;;;;;;7.65;3.28;;;22.20;73.00;;;;;;4810708;29;20050;-86
2022/06/04 13:19:05;;;;;;;6.18;3.40;;;22.30;75.30;;;;;;4808462;29;20041;-86
2022/06/04 13:21:32;;;;;;;6.78;2.97;;;22.10;74.10;;;;;;4830563;29;20406;-86
2022/06/04 13:24:03;;;;;;;7.85;3.10;;;22.10;74.50;;;;;;4837446;29;20798;-86
2022/06/04 13:27:15;;;;;;;5.60;3.20;;;22.20;74.40;;;;;;4826075;29;20125;-86
2022/06/04 13:29:41;;;;;;;8.48;3.35;;;22.20;76.00;;;;;;4807614;29;20054;-85